createdAt,value
2023-03-28T00:03:35.676Z,99463.16
2023-03-28T00:08:57.710Z,99460.41
2023-03-28T00:14:19.437Z,99475.13
2023-03-28T00:19:41.380Z,99476.06
2023-03-28T00:25:03.220Z,99481.69
2023-03-28T00:30:24.920Z,99490.59
2023-03-28T00:35:46.669Z,99487.97
2023-03-28T00:41:10.338Z,99488.66
2023-03-28T00:46:36.985Z,99504.41
2023-03-28T00:52:02.950Z,99499.72
2023-03-28T00:57:26.339Z,99500.38
2023-03-28T01:02:53.457Z,99501.53
2023-03-28T01:08:24.973Z,99506.88
2023-03-28T01:13:50.938Z,99496.56
2023-03-28T01:19:31.041Z,99493.84
2023-03-28T01:25:10.776Z,99495.72
2023-03-28T01:31:03.245Z,99503.09
2023-03-28T01:36:52.872Z,99512.53
2023-03-28T01:42:28.057Z,99522.91
2023-03-28T01:48:17.509Z,99524.50
2023-03-28T01:53:46.434Z,99525.16
2023-03-28T01:59:27.193Z,99528.69
2023-03-28T02:04:53.484Z,99521.53
2023-03-28T02:10:24.351Z,99529.06
2023-03-28T02:15:51.513Z,99530.91
2023-03-28T02:21:20.151Z,99536.13
2023-03-28T02:26:42.056Z,99541.44
2023-03-28T02:32:04.006Z,99531.94
2023-03-28T02:37:59.565Z,99535.13
2023-03-28T02:43:45.938Z,99526.84
2023-03-28T02:49:24.063Z,99524.75
2023-03-28T02:55:04.345Z,99531.44
2023-03-28T03:00:26.279Z,99529.56
2023-03-28T03:05:47.976Z,99534.94
2023-03-28T03:11:09.778Z,99536.84
2023-03-28T03:16:32.917Z,99529.41
2023-03-28T03:21:55.285Z,99537.16
2023-03-28T03:27:20.840Z,99534.59
2023-03-28T03:32:44.075Z,99524.47
2023-03-28T03:38:06.011Z,99532.28
2023-03-28T03:43:28.376Z,99536.00
2023-03-28T03:48:50.546Z,99532.56
2023-03-28T03:54:12.399Z,99528.25
2023-03-28T03:59:34.270Z,99526.50
2023-03-28T04:04:57.053Z,99538.19
2023-03-28T04:10:18.808Z,99526.16
2023-03-28T04:15:40.598Z,99532.06
2023-03-28T04:21:02.595Z,99532.22
2023-03-28T04:26:27.112Z,99537.41
2023-03-28T04:31:56.030Z,99552.19
2023-03-28T04:37:19.097Z,99554.50
2023-03-28T04:42:41.215Z,99565.91
2023-03-28T04:48:03.095Z,99574.50
2023-03-28T04:53:24.859Z,99575.34
2023-03-28T04:58:46.579Z,99577.88
2023-03-28T05:04:08.268Z,99583.09
2023-03-28T05:09:30.388Z,99583.03
2023-03-28T05:14:52.146Z,99589.91
2023-03-28T05:20:14.583Z,99583.06
2023-03-28T05:25:37.094Z,99598.38
2023-03-28T05:30:58.973Z,99599.19
2023-03-28T05:36:20.957Z,99605.25
2023-03-28T05:41:42.681Z,99614.91
2023-03-28T05:47:04.418Z,99617.53
2023-03-28T05:52:26.219Z,99621.88
2023-03-28T05:57:48.357Z,99625.13
2023-03-28T06:03:17.296Z,99633.69
2023-03-28T06:08:39.245Z,99631.06
2023-03-28T06:14:00.920Z,99638.78
2023-03-28T06:19:22.784Z,99640.47
2023-03-28T06:24:44.498Z,99653.38
2023-03-28T06:30:07.144Z,99660.28
2023-03-28T06:35:29.138Z,99653.38
2023-03-28T06:40:50.848Z,99659.25
2023-03-28T06:46:13.662Z,99668.66
2023-03-28T06:51:35.369Z,99676.38
2023-03-28T06:56:57.076Z,99673.56
2023-03-28T07:02:18.935Z,99665.53
2023-03-28T07:07:41.184Z,99667.75
2023-03-28T07:13:03.137Z,99667.44
2023-03-28T07:18:24.938Z,99675.97
2023-03-28T07:23:46.786Z,99675.06
2023-03-28T07:29:08.552Z,99676.72
2023-03-28T07:34:30.520Z,99668.84
2023-03-28T07:39:54.395Z,99669.88
2023-03-28T07:45:16.167Z,99678.50
2023-03-28T07:50:37.972Z,99679.13
2023-03-28T07:56:00.156Z,99683.94
2023-03-28T08:01:22.818Z,99694.44
2023-03-28T08:06:45.604Z,99703.03
2023-03-28T08:12:07.525Z,99701.00
2023-03-28T08:17:29.278Z,99697.97
2023-03-28T08:22:51.192Z,99703.38
2023-03-28T08:28:12.918Z,99704.13
2023-03-28T08:33:34.811Z,99701.38
2023-03-28T08:39:00.658Z,99707.47
2023-03-28T08:44:48.432Z,99701.34
2023-03-28T08:50:24.031Z,99700.19
2023-03-28T08:55:47.670Z,99693.00
2023-03-28T09:01:10.163Z,99702.53
2023-03-28T09:06:44.198Z,99709.69
2023-03-28T09:12:24.090Z,99706.47
2023-03-28T09:17:48.722Z,99707.97
2023-03-28T09:23:19.279Z,99700.94
2023-03-28T09:28:51.250Z,99697.84
2023-03-28T09:34:20.760Z,99708.72
2023-03-28T09:39:49.298Z,99706.38
2023-03-28T09:45:35.209Z,99701.44
2023-03-28T09:51:01.617Z,99699.41
2023-03-28T09:56:44.193Z,99692.69
2023-03-28T10:02:25.457Z,99683.53
2023-03-28T10:07:48.047Z,99680.13
2023-03-28T10:13:11.486Z,99673.06
2023-03-28T10:18:33.876Z,99672.03
2023-03-28T10:24:09.605Z,99660.03
2023-03-28T10:29:31.381Z,99650.00
2023-03-28T10:35:21.411Z,99644.09
2023-03-28T10:40:53.278Z,99636.31
2023-03-28T10:46:24.460Z,99639.47
2023-03-28T10:51:46.317Z,99648.41
2023-03-28T10:57:27.109Z,99633.97
2023-03-28T11:03:03.038Z,99635.78
2023-03-28T11:08:46.744Z,99628.16
2023-03-28T11:14:32.415Z,99621.22
2023-03-28T11:20:33.025Z,99612.44
2023-03-28T11:26:09.398Z,99604.34
2023-03-28T11:31:45.059Z,99598.03
2023-03-28T11:37:25.357Z,99586.03
2023-03-28T11:42:54.962Z,99584.69
2023-03-28T11:48:44.381Z,99572.25
2023-03-28T11:54:18.994Z,99566.81
2023-03-28T11:59:53.454Z,99558.59
2023-03-28T12:05:22.741Z,99555.34
2023-03-28T12:10:50.277Z,99540.09
2023-03-28T12:16:16.679Z,99529.59
2023-03-28T12:21:46.962Z,99525.66
2023-03-28T12:27:46.272Z,99516.88
2023-03-28T12:33:17.237Z,99511.44
2023-03-28T12:38:55.662Z,99502.19
2023-03-28T12:44:24.589Z,99500.47
2023-03-28T12:49:58.844Z,99500.56
2023-03-28T12:55:26.419Z,99493.22
2023-03-28T13:01:01.990Z,99479.97
2023-03-28T13:06:40.966Z,99486.59
2023-03-28T13:12:25.899Z,99473.84
2023-03-28T13:18:08.984Z,99468.94
2023-03-28T13:23:36.456Z,99465.44
2023-03-28T13:29:00.434Z,99450.31
2023-03-28T13:34:24.991Z,99461.69
2023-03-28T13:39:57.662Z,99463.25
2023-03-28T13:45:23.936Z,99447.34
2023-03-28T13:50:47.098Z,99442.59
2023-03-28T13:56:24.547Z,99422.19
2023-03-28T14:01:53.326Z,99415.56
2023-03-28T14:07:15.236Z,99407.38
2023-03-28T14:12:37.794Z,99397.19
2023-03-28T14:18:00.848Z,99389.69
2023-03-28T14:23:30.890Z,99370.97
2023-03-28T14:28:57.477Z,99355.50
2023-03-28T14:34:35.246Z,99360.38
2023-03-28T14:39:56.949Z,99355.34
2023-03-28T14:45:18.676Z,99348.13
2023-03-28T14:50:41.197Z,99339.44
2023-03-28T14:56:10.372Z,99326.75
2023-03-28T15:01:34.235Z,99318.38
2023-03-28T15:06:57.944Z,99314.88
2023-03-28T15:12:21.425Z,99313.03
2023-03-28T15:17:44.570Z,99284.19
2023-03-28T15:23:15.556Z,99281.28
2023-03-28T15:28:37.462Z,99278.13
2023-03-28T15:33:59.516Z,99277.91
2023-03-28T15:39:34.035Z,99256.19
2023-03-28T15:44:58.455Z,99259.22
2023-03-28T15:50:44.995Z,99248.97
2023-03-28T15:56:28.146Z,99248.91
2023-03-28T16:01:50.001Z,99239.38
2023-03-28T16:07:12.929Z,99226.22
2023-03-28T16:12:34.769Z,99224.44
2023-03-28T16:17:58.742Z,99221.72
2023-03-28T16:23:20.594Z,99220.72
2023-03-28T16:28:42.451Z,99209.41
2023-03-28T16:34:06.024Z,99209.91
2023-03-28T16:39:28.828Z,99197.44
2023-03-28T16:44:50.649Z,99202.16
2023-03-28T16:50:12.985Z,99202.78
2023-03-28T16:55:34.735Z,99191.84
2023-03-28T17:00:56.917Z,99188.69
2023-03-28T17:06:18.715Z,99182.09
2023-03-28T17:11:41.497Z,99172.59
2023-03-28T17:17:04.386Z,99174.81
2023-03-28T17:22:26.159Z,99164.66
2023-03-28T17:27:47.959Z,99154.88
2023-03-28T17:33:09.691Z,99155.22
2023-03-28T17:38:31.452Z,99153.00
2023-03-28T17:43:55.811Z,99143.81
2023-03-28T17:49:18.442Z,99137.94
2023-03-28T17:54:41.000Z,99134.06
2023-03-28T18:00:04.336Z,99128.09
2023-03-28T18:05:28.091Z,99127.84
2023-03-28T18:10:49.786Z,99127.84
2023-03-28T18:16:13.721Z,99121.22
2023-03-28T18:21:37.036Z,99111.47
2023-03-28T18:27:00.026Z,99116.88
2023-03-28T18:32:23.515Z,99112.41
2023-03-28T18:37:46.065Z,99104.44
2023-03-28T18:43:09.767Z,99106.75
2023-03-28T18:48:32.058Z,99095.78
2023-03-28T18:53:54.632Z,99096.91
2023-03-28T18:59:17.604Z,99083.06
2023-03-28T19:04:40.134Z,99085.75
2023-03-28T19:10:02.105Z,99085.63
2023-03-28T19:15:24.715Z,99096.16
2023-03-28T19:20:51.018Z,99111.56
2023-03-28T19:26:13.768Z,99117.56
2023-03-28T19:31:38.071Z,99116.91
2023-03-28T19:37:07.342Z,99117.50
2023-03-28T19:42:29.087Z,99114.44
2023-03-28T19:47:51.700Z,99114.56
2023-03-28T19:53:16.898Z,99103.41
2023-03-28T19:58:38.687Z,99107.78
2023-03-28T20:04:00.483Z,99097.41
2023-03-28T20:09:22.766Z,99100.75
2023-03-28T20:14:45.667Z,99096.69
2023-03-28T20:20:08.186Z,99098.97
2023-03-28T20:25:30.350Z,99084.66
2023-03-28T20:30:53.704Z,99092.28
2023-03-28T20:36:15.936Z,99084.38
2023-03-28T20:41:38.006Z,99087.13
2023-03-28T20:47:00.083Z,99095.72
2023-03-28T20:52:22.013Z,99096.91
2023-03-28T20:57:44.150Z,99085.78
2023-03-28T21:03:07.599Z,99091.09
2023-03-28T21:08:29.453Z,99028.69
2023-03-28T21:13:51.190Z,99006.31
2023-03-28T21:19:12.985Z,99001.53
2023-03-28T21:24:34.693Z,99050.44
2023-03-28T21:29:56.877Z,99029.59
2023-03-28T21:35:19.086Z,99029.78
2023-03-28T21:40:40.932Z,99019.28
2023-03-28T21:46:03.740Z,99050.59
2023-03-28T21:51:26.007Z,99058.19
2023-03-28T21:56:47.861Z,99015.97
2023-03-28T22:02:09.728Z,98997.44
2023-03-28T22:07:31.488Z,99021.69
2023-03-28T22:12:54.156Z,99036.88
2023-03-28T22:18:16.016Z,99026.50
2023-03-28T22:23:37.703Z,99055.13
2023-03-28T22:28:59.656Z,99062.94
2023-03-28T22:34:21.460Z,99083.88
2023-03-28T22:39:43.585Z,99120.16
2023-03-28T22:45:06.446Z,99116.72
2023-03-28T22:50:28.252Z,99137.56
2023-03-28T22:55:50.280Z,99108.94
2023-03-28T23:01:12.155Z,99120.47
2023-03-28T23:06:35.137Z,99112.00
2023-03-28T23:11:56.838Z,99112.19
2023-03-28T23:17:18.963Z,99120.00
2023-03-28T23:22:42.096Z,99104.00
2023-03-28T23:28:04.051Z,99085.69
2023-03-28T23:33:26.020Z,99053.19
2023-03-28T23:38:48.607Z,99038.78
2023-03-28T23:44:10.329Z,99001.94
2023-03-28T23:49:32.015Z,99014.00
2023-03-28T23:54:53.717Z,98993.41
